createdAt,value
2019-05-12T04:00:45.002Z,65.77
2019-05-12T04:02:45.337Z,65.56
2019-05-12T04:04:45.338Z,65.87
2019-05-12T04:06:45.265Z,65.63
2019-05-12T04:08:45.576Z,65.60
2019-05-12T04:10:45.351Z,65.58
2019-05-12T04:12:45.020Z,64.72
2019-05-12T04:14:44.965Z,64.51
2019-05-12T04:16:45.151Z,64.65
2019-05-12T04:18:45.137Z,63.72
2019-05-12T04:20:54.533Z,63.38
2019-05-12T04:22:51.121Z,62.94
2019-05-12T04:24:44.638Z,63.35
2019-05-12T04:26:44.864Z,61.64
2019-05-12T04:28:45.648Z,61.40
2019-05-12T04:30:44.599Z,61.45
2019-05-12T04:32:45.109Z,61.55
2019-05-12T04:34:44.774Z,61.08
2019-05-12T04:36:44.873Z,53.16
2019-05-12T04:38:45.021Z,49.46
2019-05-12T04:40:44.976Z,48.76
2019-05-12T04:42:45.185Z,52.47
2019-05-12T04:44:44.877Z,47.03
2019-05-12T04:46:45.051Z,46.78
2019-05-12T04:48:45.258Z,51.31
2019-05-12T04:50:45.226Z,50.40
2019-05-12T04:52:44.751Z,52.96
2019-05-12T04:54:44.458Z,54.36
2019-05-12T04:56:44.570Z,55.84
2019-05-12T04:58:45.069Z,56.58
2019-05-12T05:00:44.760Z,57.22
2019-05-12T05:02:45.501Z,56.92
2019-05-12T05:04:44.192Z,55.87
2019-05-12T05:06:44.885Z,53.52
2019-05-12T05:08:44.369Z,55.51
2019-05-12T05:10:44.326Z,56.68
2019-05-12T05:12:44.908Z,56.51
2019-05-12T05:14:44.584Z,57.45
2019-05-12T05:16:45.090Z,57.58
2019-05-12T05:18:44.017Z,57.48
2019-05-12T05:20:43.951Z,57.35
2019-05-12T05:22:43.975Z,57.15
2019-05-12T05:24:44.407Z,56.81
2019-05-12T05:26:43.668Z,56.07
2019-05-12T05:28:43.669Z,55.84
2019-05-12T05:30:44.147Z,55.71
2019-05-12T05:32:44.423Z,54.28
2019-05-12T05:34:46.272Z,53.37
2019-05-12T05:36:44.335Z,54.31
2019-05-12T05:38:43.759Z,55.05
2019-05-12T05:40:43.582Z,55.76
2019-05-12T05:42:43.978Z,56.53
2019-05-12T05:44:43.508Z,56.86
2019-05-12T05:46:47.732Z,57.17
2019-05-12T05:48:44.210Z,57.40
2019-05-12T05:50:43.882Z,57.17
2019-05-12T05:52:43.825Z,56.23
2019-05-12T05:54:43.983Z,55.58
2019-05-12T05:56:57.539Z,57.04
2019-05-12T05:58:49.647Z,56.76
2019-05-12T06:00:44.071Z,56.56
2019-05-12T06:02:44.143Z,56.76
2019-05-12T06:04:45.574Z,56.84
2019-05-12T06:06:50.819Z,55.56
2019-05-12T06:08:44.481Z,55.74
2019-05-12T06:10:43.558Z,54.82
2019-05-12T06:12:48.549Z,54.69
2019-05-12T06:14:46.710Z,52.63
2019-05-12T06:16:43.866Z,52.23
2019-05-12T06:18:44.009Z,52.63
2019-05-12T06:20:43.699Z,52.08
2019-05-12T06:22:43.771Z,50.48
2019-05-12T06:24:44.127Z,51.32
2019-05-12T06:26:56.838Z,49.68
2019-05-12T06:28:44.126Z,48.27
2019-05-12T06:30:44.860Z,47.95
2019-05-12T06:32:50.197Z,44.77
2019-05-12T06:34:43.670Z,45.47
2019-05-12T06:36:44.081Z,46.83
2019-05-12T06:38:43.450Z,44.91
2019-05-12T06:40:45.346Z,44.95
2019-05-12T06:42:43.583Z,39.08
2019-05-12T06:44:43.782Z,42.69
2019-05-12T06:46:44.224Z,43.66
2019-05-12T06:48:45.347Z,46.17
2019-05-12T06:50:44.199Z,48.07
2019-05-12T06:52:46.797Z,48.82
2019-05-12T06:54:51.331Z,49.57
2019-05-12T06:56:43.612Z,47.19
2019-05-12T06:58:44.246Z,43.26
2019-05-12T07:00:43.759Z,41.58
2019-05-12T07:02:50.064Z,42.90
2019-05-12T07:04:47.355Z,40.34
2019-05-12T07:06:44.127Z,45.18
2019-05-12T07:08:43.940Z,48.37
2019-05-12T07:10:44.289Z,50.30
2019-05-12T07:12:58.042Z,50.82
2019-05-12T07:14:43.818Z,51.18
2019-05-12T07:16:44.145Z,52.36
2019-05-12T07:18:43.721Z,53.25
2019-05-12T07:20:43.576Z,54.41
2019-05-12T07:22:47.661Z,54.53
2019-05-12T07:24:50.196Z,54.86
2019-05-12T07:26:44.231Z,55.53
2019-05-12T07:28:43.354Z,56.13
2019-05-12T07:30:44.050Z,55.96
2019-05-12T07:32:43.342Z,55.99
2019-05-12T07:34:43.744Z,55.35
2019-05-12T07:36:44.180Z,55.25
2019-05-12T07:38:43.372Z,55.43
2019-05-12T07:40:44.305Z,54.21
2019-05-12T07:42:43.894Z,53.12
2019-05-12T07:44:44.062Z,52.18
2019-05-12T07:46:45.608Z,48.65
2019-05-12T07:48:48.975Z,50.72
2019-05-12T07:50:43.365Z,51.25
2019-05-12T07:52:44.010Z,52.51
2019-05-12T07:54:41.806Z,52.54
2019-05-12T07:56:44.045Z,52.86
2019-05-12T07:58:47.514Z,53.37
2019-05-12T08:00:44.309Z,52.99
2019-05-12T08:02:44.386Z,52.89
2019-05-12T08:04:43.857Z,53.02
2019-05-12T08:06:44.544Z,53.19
2019-05-12T08:08:50.349Z,53.30
2019-05-12T08:10:44.332Z,52.92
2019-05-12T08:12:41.646Z,53.32
2019-05-12T08:14:43.905Z,53.98
2019-05-12T08:16:43.752Z,54.59
2019-05-12T08:18:41.578Z,53.91
2019-05-12T08:20:43.551Z,54.33
2019-05-12T08:22:43.618Z,54.44
2019-05-12T08:24:43.026Z,54.13
2019-05-12T08:26:43.520Z,54.33
2019-05-12T08:28:41.441Z,54.31
2019-05-12T08:30:47.445Z,52.69
2019-05-12T08:32:44.294Z,51.09
2019-05-12T08:34:43.595Z,50.62
2019-05-12T08:36:44.977Z,50.16
2019-05-12T08:38:44.470Z,49.41
2019-05-12T08:40:48.754Z,48.44
2019-05-12T08:42:43.706Z,47.54
2019-05-12T08:44:43.799Z,46.80
2019-05-12T08:46:43.121Z,48.02
2019-05-12T08:48:44.355Z,48.67
2019-05-12T08:50:44.568Z,49.19
2019-05-12T08:52:41.957Z,49.95
2019-05-12T08:54:45.384Z,51.40
2019-05-12T08:56:43.651Z,51.53
2019-05-12T08:58:48.222Z,52.29
2019-05-12T09:00:46.403Z,52.11
2019-05-12T09:02:48.336Z,51.89
2019-05-12T09:04:45.434Z,50.70
2019-05-12T09:06:43.482Z,50.31
2019-05-12T09:08:45.135Z,49.73
2019-05-12T09:10:44.975Z,48.78
2019-05-12T09:12:40.953Z,48.43
2019-05-12T09:14:43.494Z,48.43
2019-05-12T09:16:43.902Z,48.83
2019-05-12T09:18:40.887Z,49.04
2019-05-12T09:20:48.790Z,49.54
2019-05-12T09:22:43.238Z,49.41
2019-05-12T09:24:40.826Z,49.31
2019-05-12T09:26:40.796Z,49.11
2019-05-12T09:28:47.419Z,49.19
2019-05-12T09:30:45.855Z,49.76
2019-05-12T09:32:48.244Z,48.36
2019-05-12T09:34:44.710Z,48.54
2019-05-12T09:36:44.086Z,48.22
2019-05-12T09:38:41.120Z,48.19
2019-05-12T09:40:40.665Z,47.37
2019-05-12T09:42:40.648Z,46.92
2019-05-12T09:44:43.792Z,47.85
2019-05-12T09:46:40.687Z,47.99
2019-05-12T09:48:46.874Z,47.45
2019-05-12T09:50:44.184Z,47.03
2019-05-12T09:52:40.510Z,47.30
2019-05-12T09:54:41.231Z,47.30
2019-05-12T09:56:41.383Z,47.18
2019-05-12T09:58:40.467Z,47.18
2019-05-12T10:00:40.448Z,47.71
2019-05-12T10:02:40.405Z,48.14
2019-05-12T10:04:40.389Z,48.13
2019-05-12T10:06:40.381Z,48.22
2019-05-12T10:08:40.576Z,47.53
2019-05-12T10:10:41.468Z,48.02
2019-05-12T10:12:48.575Z,48.32
2019-05-12T10:14:45.878Z,47.90
2019-05-12T10:16:45.637Z,47.40
2019-05-12T10:18:45.397Z,47.18
2019-05-12T10:20:41.202Z,48.55
2019-05-12T10:22:40.508Z,48.27
2019-05-12T10:24:43.066Z,48.14
2019-05-12T10:26:48.660Z,47.72
2019-05-12T10:28:43.686Z,47.38
2019-05-12T10:30:41.113Z,48.17
2019-05-12T10:32:40.077Z,49.94
2019-05-12T10:34:40.449Z,50.29
2019-05-12T10:36:44.854Z,48.64
2019-05-12T10:38:43.309Z,50.81
2019-05-12T10:40:40.002Z,51.46
2019-05-12T10:42:46.253Z,51.87
2019-05-12T10:44:41.123Z,49.16
2019-05-12T10:46:42.397Z,48.42
2019-05-12T10:48:39.896Z,47.92
2019-05-12T10:50:39.886Z,49.99
2019-05-12T10:52:40.721Z,48.44
2019-05-12T10:54:39.839Z,48.32
2019-05-12T10:56:39.832Z,47.89
2019-05-12T10:58:39.790Z,48.07
2019-05-12T11:00:39.767Z,47.15
2019-05-12T11:02:39.779Z,47.33
2019-05-12T11:04:41.240Z,48.11
2019-05-12T11:06:44.025Z,50.42
2019-05-12T11:08:41.380Z,51.99
2019-05-12T11:10:40.657Z,49.74
2019-05-12T11:12:39.654Z,48.76
2019-05-12T11:14:39.638Z,48.14
2019-05-12T11:16:41.907Z,48.02
2019-05-12T11:18:46.626Z,47.69
2019-05-12T11:20:39.560Z,47.49
2019-05-12T11:22:39.539Z,47.55
2019-05-12T11:24:39.519Z,46.83
2019-05-12T11:26:39.480Z,47.33
2019-05-12T11:28:39.461Z,46.50
2019-05-12T11:30:39.448Z,46.61
2019-05-12T11:32:39.625Z,46.80
2019-05-12T11:34:39.930Z,48.05
2019-05-12T11:36:39.541Z,47.67
2019-05-12T11:38:39.462Z,47.75
2019-05-12T11:40:39.405Z,47.42
2019-05-12T11:42:39.337Z,47.33
2019-05-12T11:44:39.333Z,47.60
2019-05-12T11:46:39.285Z,46.78
2019-05-12T11:48:40.276Z,46.58
2019-05-12T11:50:46.138Z,48.45
2019-05-12T11:52:40.225Z,49.59
2019-05-12T11:54:41.283Z,49.72
2019-05-12T11:56:45.244Z,49.32
2019-05-12T11:58:41.344Z,48.27
2019-05-12T12:00:40.136Z,47.60
2019-05-12T12:02:39.091Z,47.18
2019-05-12T12:04:39.435Z,47.36
2019-05-12T12:06:39.056Z,46.84
2019-05-12T12:08:39.023Z,47.75
2019-05-12T12:10:40.036Z,48.63
2019-05-12T12:12:39.606Z,49.82
2019-05-12T12:14:40.341Z,49.72
2019-05-12T12:16:44.294Z,48.17
2019-05-12T12:18:39.917Z,48.47
2019-05-12T12:20:38.914Z,48.35
2019-05-12T12:22:38.901Z,49.91
2019-05-12T12:26:39.844Z,51.72
2019-05-12T12:28:38.804Z,52.24
2019-05-12T12:30:38.797Z,50.49
2019-05-12T12:32:38.763Z,49.14
2019-05-12T12:34:38.741Z,49.96
2019-05-12T12:36:38.738Z,48.17
2019-05-12T12:38:38.710Z,48.25
2019-05-12T12:40:38.700Z,47.10
2019-05-12T12:42:44.063Z,46.88
2019-05-12T12:44:39.666Z,46.34
2019-05-12T12:46:38.620Z,47.03
2019-05-12T12:48:38.601Z,46.51
2019-05-12T12:50:38.587Z,48.40
2019-05-12T12:52:43.641Z,48.20
2019-05-12T12:54:39.545Z,48.20
2019-05-12T12:56:38.530Z,50.27
2019-05-12T12:58:38.500Z,49.37
2019-05-12T13:00:47.091Z,51.87
2019-05-12T13:02:45.208Z,52.62
2019-05-12T13:04:45.166Z,52.84
2019-05-12T13:06:39.409Z,51.92
2019-05-12T13:08:38.384Z,50.57
2019-05-12T13:10:40.606Z,49.91
2019-05-12T13:12:39.343Z,48.99
2019-05-12T13:14:38.525Z,48.05
2019-05-12T13:16:38.301Z,48.72
2019-05-12T13:18:38.271Z,47.60
2019-05-12T13:20:38.255Z,48.05
2019-05-12T13:22:38.236Z,48.02
2019-05-12T13:24:38.226Z,49.59
2019-05-12T13:26:38.200Z,51.77
2019-05-12T13:28:38.206Z,52.44
2019-05-12T13:30:46.199Z,51.74
2019-05-12T13:32:39.141Z,51.94
2019-05-12T13:34:38.590Z,51.09
2019-05-12T13:36:39.366Z,52.47
2019-05-12T13:38:40.417Z,50.79
2019-05-12T13:40:39.431Z,49.84
2019-05-12T13:42:38.029Z,48.29
2019-05-12T13:44:40.575Z,48.02
2019-05-12T13:46:37.976Z,48.00
2019-05-12T13:48:37.958Z,47.66
2019-05-12T13:50:37.947Z,47.83
2019-05-12T13:52:37.917Z,46.72
2019-05-12T13:54:37.891Z,47.02
2019-05-12T13:56:37.853Z,48.11
2019-05-12T13:58:42.794Z,47.31
2019-05-12T14:00:41.454Z,47.61
2019-05-12T14:02:38.797Z,47.61
2019-05-12T14:04:37.816Z,47.39
2019-05-12T14:06:38.160Z,49.38
2019-05-12T14:08:37.739Z,51.77
2019-05-12T14:10:43.173Z,52.34
2019-05-12T14:12:38.705Z,53.42
2019-05-12T14:14:37.670Z,53.17
2019-05-12T14:16:37.644Z,55.13
2019-05-12T14:18:37.625Z,54.75
2019-05-12T14:20:37.589Z,54.88
2019-05-12T14:22:37.616Z,54.98
2019-05-12T14:24:42.197Z,53.32
2019-05-12T14:26:39.451Z,52.12
2019-05-12T14:28:39.379Z,51.62
2019-05-12T14:30:41.308Z,52.04
2019-05-12T14:32:38.497Z,51.87
2019-05-12T14:34:37.465Z,52.77
2019-05-12T14:36:37.431Z,52.29
2019-05-12T14:38:37.403Z,52.29
2019-05-12T14:40:37.401Z,52.97
2019-05-12T14:42:39.662Z,52.26
2019-05-12T14:44:44.022Z,52.17
2019-05-12T14:46:40.150Z,52.57
2019-05-12T14:48:40.278Z,52.59
2019-05-12T14:50:38.291Z,52.17
2019-05-12T14:52:37.268Z,50.71
2019-05-12T14:54:37.226Z,51.67
2019-05-12T14:56:37.212Z,51.51
2019-05-12T14:58:37.200Z,51.17
2019-05-12T15:00:37.162Z,50.34
2019-05-12T15:02:37.151Z,49.82
2019-05-12T15:04:37.127Z,48.69
2019-05-12T15:06:37.109Z,48.87
2019-05-12T15:08:40.315Z,48.35
2019-05-12T15:10:37.071Z,49.90
2019-05-12T15:12:37.075Z,51.14
2019-05-12T15:14:38.115Z,51.99
2019-05-12T15:16:40.610Z,52.55
2019-05-12T15:18:39.459Z,53.47
2019-05-12T15:20:41.444Z,51.99
2019-05-12T15:22:43.028Z,51.14
2019-05-12T15:24:37.937Z,49.49
2019-05-12T15:26:36.874Z,49.49
2019-05-12T15:28:36.858Z,49.87
2019-05-12T15:30:36.847Z,49.32
2019-05-12T15:32:36.833Z,48.40
2019-05-12T15:34:36.817Z,48.30
2019-05-12T15:36:36.783Z,49.65
2019-05-12T15:38:36.742Z,51.52
2019-05-12T15:40:36.736Z,52.49
2019-05-12T15:42:36.714Z,53.67
2019-05-12T15:44:37.072Z,54.53
2019-05-12T15:46:41.288Z,55.68
2019-05-12T15:48:37.646Z,55.94
2019-05-12T15:50:36.638Z,56.47
2019-05-12T15:52:42.289Z,56.82
2019-05-12T15:54:45.649Z,57.45
2019-05-12T15:56:37.560Z,57.08
2019-05-12T15:58:36.541Z,57.21
2019-05-12T16:00:38.337Z,57.54
2019-05-12T16:02:36.504Z,57.54
2019-05-12T16:04:43.002Z,57.87
2019-05-12T16:06:44.744Z,57.49
2019-05-12T16:08:37.441Z,58.53
2019-05-12T16:10:36.403Z,58.02
2019-05-12T16:12:36.375Z,57.54
2019-05-12T16:14:40.949Z,57.95
2019-05-12T16:16:42.628Z,57.75
2019-05-12T16:18:40.426Z,57.75
2019-05-12T16:20:37.316Z,57.78
2019-05-12T16:22:44.210Z,57.67
2019-05-12T16:24:37.250Z,57.87
2019-05-12T16:26:36.281Z,57.20
2019-05-12T16:28:36.208Z,57.20
2019-05-12T16:30:36.235Z,57.29
2019-05-12T16:32:42.626Z,57.80
2019-05-12T16:34:44.960Z,57.50
2019-05-12T16:36:41.271Z,57.87
2019-05-12T16:38:37.107Z,57.07
2019-05-12T16:40:39.470Z,56.86
2019-05-12T16:42:40.814Z,56.18
2019-05-12T16:44:37.055Z,55.54
2019-05-12T16:46:36.026Z,54.79
2019-05-12T16:48:36.441Z,54.16
2019-05-12T16:50:36.001Z,53.52
2019-05-12T16:52:40.674Z,54.13
2019-05-12T16:54:36.917Z,53.92
2019-05-12T16:56:35.903Z,54.96
2019-05-12T16:58:35.941Z,55.16
2019-05-12T17:00:39.591Z,54.96
2019-05-12T17:02:41.364Z,55.59
2019-05-12T17:04:36.831Z,55.92
2019-05-12T17:06:38.572Z,56.35
2019-05-12T17:08:35.777Z,56.56
2019-05-12T17:10:35.760Z,56.68
2019-05-12T17:12:37.008Z,56.78
2019-05-12T17:14:44.834Z,56.81
2019-05-12T17:16:41.869Z,57.01
2019-05-12T17:18:36.672Z,57.54
2019-05-12T17:20:35.663Z,57.67
2019-05-12T17:22:35.664Z,57.17
2019-05-12T17:24:35.621Z,57.17
2019-05-12T17:26:35.606Z,57.37
2019-05-12T17:28:35.552Z,58.00
2019-05-12T17:30:35.543Z,57.70
2019-05-12T17:32:35.536Z,57.73
2019-05-12T17:34:40.277Z,58.03
2019-05-12T17:36:36.489Z,57.42
2019-05-12T17:38:35.453Z,58.26
2019-05-12T17:40:35.424Z,58.36
2019-05-12T17:42:35.442Z,57.96
2019-05-12T17:44:36.753Z,59.30
2019-05-12T17:46:38.084Z,58.80
2019-05-12T17:48:37.388Z,58.82
2019-05-12T17:50:40.579Z,58.82
2019-05-12T17:52:36.294Z,58.01
2019-05-12T17:54:35.298Z,58.11
2019-05-12T17:56:38.588Z,57.91
2019-05-12T17:58:41.970Z,58.22
2019-05-12T18:00:36.233Z,58.85
2019-05-12T18:02:35.184Z,59.28
2019-05-12T18:04:37.249Z,59.69
2019-05-12T18:06:35.166Z,59.18
2019-05-12T18:08:38.551Z,59.62
2019-05-12T18:10:37.942Z,59.75
2019-05-12T18:12:41.795Z,59.37
2019-05-12T18:14:44.999Z,59.67
2019-05-12T18:16:36.029Z,60.31
2019-05-12T18:18:38.056Z,60.00
2019-05-12T18:20:40.164Z,59.93
2019-05-12T18:22:39.357Z,60.44
2019-05-12T18:24:34.960Z,60.64
2019-05-12T18:26:34.925Z,60.54
2019-05-12T18:28:34.917Z,60.68
2019-05-12T18:30:34.885Z,60.57
2019-05-12T18:32:34.859Z,60.50
2019-05-12T18:34:34.863Z,60.60
2019-05-12T18:36:34.818Z,60.09
2019-05-12T18:38:35.418Z,60.02
2019-05-12T18:40:34.781Z,60.22
2019-05-12T18:42:34.764Z,60.42
2019-05-12T18:44:36.122Z,60.73
2019-05-12T18:46:36.207Z,60.53
2019-05-12T18:48:35.885Z,60.45
2019-05-12T18:50:34.791Z,60.45
2019-05-12T18:52:41.371Z,61.16
2019-05-12T18:54:35.620Z,61.47
2019-05-12T18:56:34.634Z,61.19
2019-05-12T18:58:35.455Z,61.19
2019-05-12T19:00:34.612Z,61.09
2019-05-12T19:02:34.554Z,61.30
2019-05-12T19:04:39.747Z,60.69
2019-05-12T19:06:35.511Z,60.71
2019-05-12T19:08:34.847Z,60.82
2019-05-12T19:10:38.684Z,60.74
2019-05-12T19:12:35.800Z,60.74
2019-05-12T19:14:36.907Z,60.74
2019-05-12T19:16:35.420Z,60.74
2019-05-12T19:18:37.346Z,60.94
2019-05-12T19:20:36.301Z,60.85
2019-05-12T19:22:39.530Z,61.05
2019-05-12T19:24:36.270Z,60.74
2019-05-12T19:26:38.436Z,60.87
2019-05-12T19:28:35.278Z,61.28
2019-05-12T19:30:36.811Z,61.28
2019-05-12T19:32:36.816Z,61.08
2019-05-12T19:34:37.369Z,61.58
2019-05-12T19:36:38.114Z,61.58
2019-05-12T19:38:35.147Z,61.61
2019-05-12T19:40:34.145Z,61.41
2019-05-12T19:42:34.100Z,61.82
2019-05-12T19:44:34.337Z,61.10
2019-05-12T19:46:34.232Z,61.44
2019-05-12T19:48:43.072Z,61.31
2019-05-12T19:50:35.026Z,61.03
2019-05-12T19:52:34.011Z,61.34
2019-05-12T19:54:36.779Z,61.34
2019-05-12T19:56:35.814Z,61.34
2019-05-12T19:58:34.923Z,61.34
2019-05-12T20:00:34.710Z,61.44
2019-05-12T20:02:34.260Z,61.88
2019-05-12T20:04:42.162Z,61.88
2019-05-12T20:06:34.846Z,61.77
2019-05-12T20:08:33.942Z,61.57
2019-05-12T20:10:36.135Z,62.49
2019-05-12T20:12:35.363Z,61.88
2019-05-12T20:14:34.440Z,62.18
2019-05-12T20:16:34.635Z,61.91
2019-05-12T20:18:42.459Z,62.01
2019-05-12T20:20:37.870Z,62.11
2019-05-12T20:22:34.687Z,62.11
2019-05-12T20:24:33.657Z,62.11
2019-05-12T20:26:38.321Z,62.01
2019-05-12T20:28:34.752Z,62.04
2019-05-12T20:30:33.627Z,62.14
2019-05-12T20:32:34.427Z,61.80
2019-05-12T20:34:45.901Z,61.70
2019-05-12T20:36:34.511Z,61.40
2019-05-12T20:38:36.500Z,61.19
2019-05-12T20:40:37.537Z,61.50
2019-05-12T20:42:42.217Z,61.29
2019-05-12T20:44:34.541Z,61.19
2019-05-12T20:46:34.007Z,61.50
2019-05-12T20:48:33.910Z,61.29
2019-05-12T20:50:38.559Z,61.19
2019-05-12T20:52:34.347Z,61.29
2019-05-12T20:54:33.586Z,60.88
2019-05-12T20:56:34.366Z,61.11
2019-05-12T20:58:35.411Z,60.91
2019-05-12T21:00:38.838Z,60.60
2019-05-12T21:02:34.231Z,60.81
2019-05-12T21:04:37.457Z,60.81
2019-05-12T21:06:41.605Z,61.11
2019-05-12T21:08:34.169Z,60.81
2019-05-12T21:10:34.091Z,61.04
2019-05-12T21:12:33.502Z,61.15
2019-05-12T21:14:33.497Z,60.84
2019-05-12T21:16:38.411Z,61.15
2019-05-12T21:18:46.909Z,60.74
2019-05-12T21:20:34.036Z,60.74
2019-05-12T21:22:34.154Z,61.15
2019-05-12T21:24:37.756Z,61.25
2019-05-12T21:26:37.747Z,61.04
2019-05-12T21:28:37.259Z,60.94
2019-05-12T21:30:34.026Z,60.94
2019-05-12T21:32:33.922Z,60.94
2019-05-12T21:34:34.491Z,61.18
2019-05-12T21:36:33.854Z,60.97
2019-05-12T21:38:34.092Z,60.76
2019-05-12T21:40:34.944Z,60.76
2019-05-12T21:42:33.843Z,60.56
2019-05-12T21:44:32.787Z,60.56
2019-05-12T21:46:34.875Z,60.56
2019-05-12T21:48:33.996Z,61.18
2019-05-12T21:50:37.892Z,61.27
2019-05-12T21:52:38.962Z,61.07
2019-05-12T21:54:37.740Z,60.97
2019-05-12T21:56:37.863Z,61.07
2019-05-12T21:58:33.622Z,61.30
2019-05-12T22:00:34.730Z,60.56
2019-05-12T22:02:34.104Z,60.69
2019-05-12T22:04:41.049Z,60.79
2019-05-12T22:06:34.146Z,60.58
2019-05-12T22:08:33.838Z,60.61
2019-05-12T22:10:34.433Z,60.38
2019-05-12T22:12:33.262Z,60.51
2019-05-12T22:14:36.590Z,60.61
2019-05-12T22:16:39.681Z,60.61
2019-05-12T22:18:33.518Z,60.61
2019-05-12T22:20:32.387Z,60.82
2019-05-12T22:22:33.225Z,61.13
2019-05-12T22:24:37.239Z,61.13
2019-05-12T22:26:39.694Z,60.72
2019-05-12T22:28:34.168Z,61.16
2019-05-12T22:30:39.317Z,61.05
2019-05-12T22:32:33.127Z,60.95
2019-05-12T22:34:37.196Z,60.95
2019-05-12T22:36:33.630Z,60.95
2019-05-12T22:38:34.009Z,60.95
2019-05-12T22:40:32.178Z,60.95
2019-05-12T22:42:33.825Z,61.46
2019-05-12T22:44:34.550Z,61.18
2019-05-12T22:46:35.185Z,61.08
2019-05-12T22:48:37.351Z,61.18
2019-05-12T22:50:35.127Z,60.85
2019-05-12T22:52:38.699Z,60.64
2019-05-12T22:54:33.662Z,60.26
2019-05-12T22:56:34.297Z,60.36
2019-05-12T22:58:33.805Z,61.39
2019-05-12T23:00:34.343Z,60.26
2019-05-12T23:02:33.749Z,60.26
2019-05-12T23:04:35.651Z,60.49
2019-05-12T23:06:41.898Z,60.60
2019-05-12T23:08:33.402Z,60.49
2019-05-12T23:10:31.859Z,60.80
2019-05-12T23:12:33.897Z,60.29
2019-05-12T23:14:33.920Z,60.49
2019-05-12T23:16:33.602Z,60.49
2019-05-12T23:18:33.750Z,60.49
2019-05-12T23:20:33.402Z,60.52
2019-05-12T23:22:35.066Z,60.93
2019-05-12T23:24:37.321Z,60.63
2019-05-12T23:26:41.606Z,60.52
2019-05-12T23:28:33.781Z,60.42
